sensor_id;sensor_type;location;lat;lon;timestamp;temperature;humidity
63371;DHT22;49504;48.336;14.472;2022-11-15T00:04:33;26.10;46.50
63371;DHT22;49504;48.336;14.472;2022-11-15T00:09:35;26.20;46.50
63371;DHT22;49504;48.336;14.472;2022-11-15T00:14:36;26.10;46.50
63371;DHT22;49504;48.336;14.472;2022-11-15T00:19:37;26.10;46.50
63371;DHT22;49504;48.336;14.472;2022-11-15T00:24:39;26.20;46.60
63371;DHT22;49504;48.336;14.472;2022-11-15T00:29:40;26.10;46.40
63371;DHT22;49504;48.336;14.472;2022-11-15T00:34:41;26.10;46.60
63371;DHT22;49504;48.336;14.472;2022-11-15T00:39:43;26.10;46.50
63371;DHT22;49504;48.336;14.472;2022-11-15T00:44:44;26.10;46.70
63371;DHT22;49504;48.336;14.472;2022-11-15T00:49:45;26.10;46.60
63371;DHT22;49504;48.336;14.472;2022-11-15T00:54:47;26.10;46.80
63371;DHT22;49504;48.336;14.472;2022-11-15T00:59:48;26.10;46.70
63371;DHT22;49504;48.336;14.472;2022-11-15T01:04:49;26.10;47.10
63371;DHT22;49504;48.336;14.472;2022-11-15T01:09:51;26.10;46.70
63371;DHT22;49504;48.336;14.472;2022-11-15T01:14:52;26.10;47.20
63371;DHT22;49504;48.336;14.472;2022-11-15T01:19:53;26.10;47.10
63371;DHT22;49504;48.336;14.472;2022-11-15T01:24:55;26.10;47.10
63371;DHT22;49504;48.336;14.472;2022-11-15T01:29:56;26.10;46.70
63371;DHT22;49504;48.336;14.472;2022-11-15T01:34:57;26.10;47.20
63371;DHT22;49504;48.336;14.472;2022-11-15T01:39:59;26.10;46.50
63371;DHT22;49504;48.336;14.472;2022-11-15T01:45:14;26.10;46.50
63371;DHT22;49504;48.336;14.472;2022-11-15T01:50:18;26.10;47.40
63371;DHT22;49504;48.336;14.472;2022-11-15T01:55:24;26.10;47.40
63371;DHT22;49504;48.336;14.472;2022-11-15T02:00:28;26.00;47.30
63371;DHT22;49504;48.336;14.472;2022-11-15T02:05:30;26.10;47.40
63371;DHT22;49504;48.336;14.472;2022-11-15T02:10:32;26.00;47.40
63371;DHT22;49504;48.336;14.472;2022-11-15T02:15:39;26.00;47.30
63371;DHT22;49504;48.336;14.472;2022-11-15T02:20:51;26.00;47.40
63371;DHT22;49504;48.336;14.472;2022-11-15T02:26:08;26.00;47.40
63371;DHT22;49504;48.336;14.472;2022-11-15T02:35:52;26.00;46.80
63371;DHT22;49504;48.336;14.472;2022-11-15T02:41:01;26.00;47.40
63371;DHT22;49504;48.336;14.472;2022-11-15T02:46:09;26.00;47.40
63371;DHT22;49504;48.336;14.472;2022-11-15T02:53:32;26.00;46.80
63371;DHT22;49504;48.336;14.472;2022-11-15T02:58:56;26.00;47.50
63371;DHT22;49504;48.336;14.472;2022-11-15T03:04:10;26.00;47.40
63371;DHT22;49504;48.336;14.472;2022-11-15T03:09:27;26.00;47.40
63371;DHT22;49504;48.336;14.472;2022-11-15T03:14:34;25.90;47.30
63371;DHT22;49504;48.336;14.472;2022-11-15T03:19:40;26.00;47.40
63371;DHT22;49504;48.336;14.472;2022-11-15T03:24:50;26.00;47.40
63371;DHT22;49504;48.336;14.472;2022-11-15T03:30:07;26.00;46.80
63371;DHT22;49504;48.336;14.472;2022-11-15T03:35:11;26.00;47.30
63371;DHT22;49504;48.336;14.472;2022-11-15T03:40:13;26.00;47.30
63371;DHT22;49504;48.336;14.472;2022-11-15T03:45:19;26.00;47.30
63371;DHT22;49504;48.336;14.472;2022-11-15T03:50:24;25.90;47.30
63371;DHT22;49504;48.336;14.472;2022-11-15T04:00:07;25.90;46.70
63371;DHT22;49504;48.336;14.472;2022-11-15T04:05:09;25.90;47.20
63371;DHT22;49504;48.336;14.472;2022-11-15T04:10:11;25.90;47.30
63371;DHT22;49504;48.336;14.472;2022-11-15T04:15:15;25.90;47.20
63371;DHT22;49504;48.336;14.472;2022-11-15T04:20:19;25.90;47.20
63371;DHT22;49504;48.336;14.472;2022-11-15T04:25:21;25.90;47.20
63371;DHT22;49504;48.336;14.472;2022-11-15T04:30:23;25.90;47.20
63371;DHT22;49504;48.336;14.472;2022-11-15T04:35:25;25.90;47.10
63371;DHT22;49504;48.336;14.472;2022-11-15T04:40:26;25.90;47.10
63371;DHT22;49504;48.336;14.472;2022-11-15T04:45:28;25.90;47.10
63371;DHT22;49504;48.336;14.472;2022-11-15T04:50:29;25.90;47.10
63371;DHT22;49504;48.336;14.472;2022-11-15T04:57:32;25.90;46.70
63371;DHT22;49504;48.336;14.472;2022-11-15T05:02:34;25.90;46.80
63371;DHT22;49504;48.336;14.472;2022-11-15T05:07:34;25.90;47.10
63371;DHT22;49504;48.336;14.472;2022-11-15T05:12:37;25.90;47.10
63371;DHT22;49504;48.336;14.472;2022-11-15T05:17:38;25.90;47.00
63371;DHT22;49504;48.336;14.472;2022-11-15T05:22:39;25.90;47.30
63371;DHT22;49504;48.336;14.472;2022-11-15T05:27:41;25.90;47.10
63371;DHT22;49504;48.336;14.472;2022-11-15T05:32:42;25.90;47.20
63371;DHT22;49504;48.336;14.472;2022-11-15T05:39:58;25.90;46.70
63371;DHT22;49504;48.336;14.472;2022-11-15T05:44:59;25.90;47.30
63371;DHT22;49504;48.336;14.472;2022-11-15T05:50:02;25.90;46.90
63371;DHT22;49504;48.336;14.472;2022-11-15T05:55:07;25.90;46.20
63371;DHT22;49504;48.336;14.472;2022-11-15T06:03:08;25.80;45.20
63371;DHT22;49504;48.336;14.472;2022-11-15T06:08:09;25.80;45.10
63371;DHT22;49504;48.336;14.472;2022-11-15T06:13:10;25.80;45.60
63371;DHT22;49504;48.336;14.472;2022-11-15T06:18:12;25.80;45.80
63371;DHT22;49504;48.336;14.472;2022-11-15T06:23:13;25.80;45.90
63371;DHT22;49504;48.336;14.472;2022-11-15T06:28:14;25.80;45.90
63371;DHT22;49504;48.336;14.472;2022-11-15T06:33:16;25.80;45.90
63371;DHT22;49504;48.336;14.472;2022-11-15T06:38:17;25.80;46.00
63371;DHT22;49504;48.336;14.472;2022-11-15T06:43:18;25.80;46.00
63371;DHT22;49504;48.336;14.472;2022-11-15T06:48:21;25.80;46.00
63371;DHT22;49504;48.336;14.472;2022-11-15T06:53:22;25.80;46.00
63371;DHT22;49504;48.336;14.472;2022-11-15T06:58:23;25.80;46.00
63371;DHT22;49504;48.336;14.472;2022-11-15T07:03:25;25.80;46.00
63371;DHT22;49504;48.336;14.472;2022-11-15T07:08:28;25.80;46.00
63371;DHT22;49504;48.336;14.472;2022-11-15T07:13:30;25.80;46.10
63371;DHT22;49504;48.336;14.472;2022-11-15T07:20:48;25.70;45.60
63371;DHT22;49504;48.336;14.472;2022-11-15T07:29:52;25.80;45.80
63371;DHT22;49504;48.336;14.472;2022-11-15T07:34:52;25.80;46.20
63371;DHT22;49504;48.336;14.472;2022-11-15T07:39:53;25.70;46.20
63371;DHT22;49504;48.336;14.472;2022-11-15T07:44:56;25.80;46.30
63371;DHT22;49504;48.336;14.472;2022-11-15T07:50:24;25.70;45.70
63371;DHT22;49504;48.336;14.472;2022-11-15T07:55:26;25.70;46.20
63371;DHT22;49504;48.336;14.472;2022-11-15T08:00:28;25.70;46.20
63371;DHT22;49504;48.336;14.472;2022-11-15T08:09:12;25.70;45.70
63371;DHT22;49504;48.336;14.472;2022-11-15T08:14:13;25.70;46.10
63371;DHT22;49504;48.336;14.472;2022-11-15T08:19:14;25.70;46.00
63371;DHT22;49504;48.336;14.472;2022-11-15T08:24:16;25.70;46.20
63371;DHT22;49504;48.336;14.472;2022-11-15T08:29:17;25.70;46.20
63371;DHT22;49504;48.336;14.472;2022-11-15T08:34:18;25.70;46.10
63371;DHT22;49504;48.336;14.472;2022-11-15T08:39:20;25.70;46.10
63371;DHT22;49504;48.336;14.472;2022-11-15T08:44:22;25.70;46.30
63371;DHT22;49504;48.336;14.472;2022-11-15T08:49:23;25.70;46.30
63371;DHT22;49504;48.336;14.472;2022-11-15T08:56:36;25.70;45.80
63371;DHT22;49504;48.336;14.472;2022-11-15T09:01:37;25.70;46.50
63371;DHT22;49504;48.336;14.472;2022-11-15T09:06:38;25.70;46.70
63371;DHT22;49504;48.336;14.472;2022-11-15T09:11:40;25.70;46.30
63371;DHT22;49504;48.336;14.472;2022-11-15T09:16:41;25.70;46.50
63371;DHT22;49504;48.336;14.472;2022-11-15T09:21:42;25.70;46.50
63371;DHT22;49504;48.336;14.472;2022-11-15T09:26:45;25.70;46.70
63371;DHT22;49504;48.336;14.472;2022-11-15T09:31:46;25.70;46.90
63371;DHT22;49504;48.336;14.472;2022-11-15T09:36:47;25.70;46.80
63371;DHT22;49504;48.336;14.472;2022-11-15T09:46:24;25.60;46.10
63371;DHT22;49504;48.336;14.472;2022-11-15T09:54:38;25.70;46.20
63371;DHT22;49504;48.336;14.472;2022-11-15T09:59:51;25.70;46.80
63371;DHT22;49504;48.336;14.472;2022-11-15T10:05:00;25.70;46.60
63371;DHT22;49504;48.336;14.472;2022-11-15T10:10:10;25.70;46.20
63371;DHT22;49504;48.336;14.472;2022-11-15T10:18:59;25.70;46.00
63371;DHT22;49504;48.336;14.472;2022-11-15T10:24:10;25.70;46.60
63371;DHT22;49504;48.336;14.472;2022-11-15T10:29:11;25.70;46.70
63371;DHT22;49504;48.336;14.472;2022-11-15T10:34:22;25.70;46.80
63371;DHT22;49504;48.336;14.472;2022-11-15T10:39:24;25.70;46.80
63371;DHT22;49504;48.336;14.472;2022-11-15T10:45:26;25.60;46.20
63371;DHT22;49504;48.336;14.472;2022-11-15T10:50:30;25.60;46.80
63371;DHT22;49504;48.336;14.472;2022-11-15T10:55:32;25.60;46.90
63371;DHT22;49504;48.336;14.472;2022-11-15T11:00:37;25.60;47.00
63371;DHT22;49504;48.336;14.472;2022-11-15T11:05:39;25.60;47.00
63371;DHT22;49504;48.336;14.472;2022-11-15T11:10:52;25.60;47.00
63371;DHT22;49504;48.336;14.472;2022-11-15T11:16:11;25.60;47.60
63371;DHT22;49504;48.336;14.472;2022-11-15T11:25:33;25.60;46.40
63371;DHT22;49504;48.336;14.472;2022-11-15T11:30:45;25.60;47.60
63371;DHT22;49504;48.336;14.472;2022-11-15T11:35:59;25.60;47.00
63371;DHT22;49504;48.336;14.472;2022-11-15T11:41:12;25.60;47.00
63371;DHT22;49504;48.336;14.472;2022-11-15T11:46:52;25.60;46.40
63371;DHT22;49504;48.336;14.472;2022-11-15T11:52:01;25.60;47.00
63371;DHT22;49504;48.336;14.472;2022-11-15T11:57:09;25.60;47.00
63371;DHT22;49504;48.336;14.472;2022-11-15T12:11:21;25.50;46.40
63371;DHT22;49504;48.336;14.472;2022-11-15T12:17:28;25.50;46.30
63371;DHT22;49504;48.336;14.472;2022-11-15T12:22:38;25.50;47.00
63371;DHT22;49504;48.336;14.472;2022-11-15T12:27:45;25.50;46.90
63371;DHT22;49504;48.336;14.472;2022-11-15T12:32:54;25.50;47.00
63371;DHT22;49504;48.336;14.472;2022-11-15T12:38:56;25.50;46.40
63371;DHT22;49504;48.336;14.472;2022-11-15T12:43:58;25.50;47.00
63371;DHT22;49504;48.336;14.472;2022-11-15T12:51:04;25.50;46.40
63371;DHT22;49504;48.336;14.472;2022-11-15T12:56:22;25.50;47.00
63371;DHT22;49504;48.336;14.472;2022-11-15T13:13:00;25.50;47.20
63371;DHT22;49504;48.336;14.472;2022-11-15T13:18:34;25.50;47.20
63371;DHT22;49504;48.336;14.472;2022-11-15T13:23:38;25.50;47.20
63371;DHT22;49504;48.336;14.472;2022-11-15T13:28:42;25.60;47.30
63371;DHT22;49504;48.336;14.472;2022-11-15T13:33:44;25.50;47.20
63371;DHT22;49504;48.336;14.472;2022-11-15T13:38:55;25.60;47.10
63371;DHT22;49504;48.336;14.472;2022-11-15T13:43:58;25.60;47.00
63371;DHT22;49504;48.336;14.472;2022-11-15T13:49:01;25.60;47.10
63371;DHT22;49504;48.336;14.472;2022-11-15T13:54:12;25.60;47.20
63371;DHT22;49504;48.336;14.472;2022-11-15T13:59:25;25.60;47.10
63371;DHT22;49504;48.336;14.472;2022-11-15T14:04:28;25.60;47.10
63371;DHT22;49504;48.336;14.472;2022-11-15T14:09:35;25.60;47.10
63371;DHT22;49504;48.336;14.472;2022-11-15T14:14:44;25.60;47.20
63371;DHT22;49504;48.336;14.472;2022-11-15T14:19:46;25.70;47.20
63371;DHT22;49504;48.336;14.472;2022-11-15T14:25:13;25.60;47.20
63371;DHT22;49504;48.336;14.472;2022-11-15T14:31:42;25.60;46.60
63371;DHT22;49504;48.336;14.472;2022-11-15T14:36:43;25.60;47.30
63371;DHT22;49504;48.336;14.472;2022-11-15T14:42:56;25.60;46.70
63371;DHT22;49504;48.336;14.472;2022-11-15T14:47:57;25.70;47.50
63371;DHT22;49504;48.336;14.472;2022-11-15T14:52:58;25.70;47.70
63371;DHT22;49504;48.336;14.472;2022-11-15T14:58:00;25.80;47.70
63371;DHT22;49504;48.336;14.472;2022-11-15T15:03:02;25.90;47.60
63371;DHT22;49504;48.336;14.472;2022-11-15T15:08:04;26.10;47.40
63371;DHT22;49504;48.336;14.472;2022-11-15T15:13:17;26.30;47.20
63371;DHT22;49504;48.336;14.472;2022-11-15T15:18:19;26.50;46.90
63371;DHT22;49504;48.336;14.472;2022-11-15T15:23:20;26.80;46.50
63371;DHT22;49504;48.336;14.472;2022-11-15T15:28:22;27.00;46.30
63371;DHT22;49504;48.336;14.472;2022-11-15T15:33:26;27.20;45.90
63371;DHT22;49504;48.336;14.472;2022-11-15T15:38:27;27.40;45.30
63371;DHT22;49504;48.336;14.472;2022-11-15T15:43:30;27.60;45.10
63371;DHT22;49504;48.336;14.472;2022-11-15T15:48:31;27.70;45.00
63371;DHT22;49504;48.336;14.472;2022-11-15T15:53:32;27.80;44.90
63371;DHT22;49504;48.336;14.472;2022-11-15T15:58:34;27.80;44.60
63371;DHT22;49504;48.336;14.472;2022-11-15T16:03:35;27.80;44.60
63371;DHT22;49504;48.336;14.472;2022-11-15T16:08:37;27.70;44.30
63371;DHT22;49504;48.336;14.472;2022-11-15T16:14:12;27.60;44.20
63371;DHT22;49504;48.336;14.472;2022-11-15T16:19:14;27.50;44.40
63371;DHT22;49504;48.336;14.472;2022-11-15T16:24:14;27.40;43.50
63371;DHT22;49504;48.336;14.472;2022-11-15T16:29:17;27.40;44.00
63371;DHT22;49504;48.336;14.472;2022-11-15T16:34:18;27.40;44.50
63371;DHT22;49504;48.336;14.472;2022-11-15T16:39:19;27.30;43.70
63371;DHT22;49504;48.336;14.472;2022-11-15T16:46:28;27.20;44.00
63371;DHT22;49504;48.336;14.472;2022-11-15T16:51:29;27.20;44.70
63371;DHT22;49504;48.336;14.472;2022-11-15T16:56:30;27.20;44.90
63371;DHT22;49504;48.336;14.472;2022-11-15T17:01:34;27.10;45.00
63371;DHT22;49504;48.336;14.472;2022-11-15T17:06:36;27.10;45.20
63371;DHT22;49504;48.336;14.472;2022-11-15T17:11:37;27.00;45.40
63371;DHT22;49504;48.336;14.472;2022-11-15T17:16:39;27.00;45.40
63371;DHT22;49504;48.336;14.472;2022-11-15T17:21:41;26.90;45.40
63371;DHT22;49504;48.336;14.472;2022-11-15T17:26:44;26.80;45.70
63371;DHT22;49504;48.336;14.472;2022-11-15T17:31:47;26.80;45.70
63371;DHT22;49504;48.336;14.472;2022-11-15T17:36:49;26.70;45.60
63371;DHT22;49504;48.336;14.472;2022-11-15T17:41:50;26.70;45.70
63371;DHT22;49504;48.336;14.472;2022-11-15T17:46:53;26.60;45.90
63371;DHT22;49504;48.336;14.472;2022-11-15T17:51:54;26.60;46.20
63371;DHT22;49504;48.336;14.472;2022-11-15T17:56:55;26.50;46.10
63371;DHT22;49504;48.336;14.472;2022-11-15T18:01:58;26.50;46.20
63371;DHT22;49504;48.336;14.472;2022-11-15T18:06:59;26.50;46.30
63371;DHT22;49504;48.336;14.472;2022-11-15T18:12:00;26.50;46.30
63371;DHT22;49504;48.336;14.472;2022-11-15T18:17:02;26.40;46.40
63371;DHT22;49504;48.336;14.472;2022-11-15T18:22:03;26.40;46.40
63371;DHT22;49504;48.336;14.472;2022-11-15T18:27:05;26.40;46.70
63371;DHT22;49504;48.336;14.472;2022-11-15T18:32:09;26.30;46.50
63371;DHT22;49504;48.336;14.472;2022-11-15T18:37:11;26.30;46.50
63371;DHT22;49504;48.336;14.472;2022-11-15T18:42:16;26.30;46.70
63371;DHT22;49504;48.336;14.472;2022-11-15T18:47:20;26.30;46.80
63371;DHT22;49504;48.336;14.472;2022-11-15T18:52:23;26.30;46.80
63371;DHT22;49504;48.336;14.472;2022-11-15T18:57:27;26.30;47.10
63371;DHT22;49504;48.336;14.472;2022-11-15T19:08:13;26.20;46.90
63371;DHT22;49504;48.336;14.472;2022-11-15T19:13:15;26.20;47.50
63371;DHT22;49504;48.336;14.472;2022-11-15T19:18:21;26.20;47.30
63371;DHT22;49504;48.336;14.472;2022-11-15T19:23:27;26.20;47.40
63371;DHT22;49504;48.336;14.472;2022-11-15T19:28:32;26.20;47.40
63371;DHT22;49504;48.336;14.472;2022-11-15T19:33:38;26.20;47.50
63371;DHT22;49504;48.336;14.472;2022-11-15T19:38:40;26.20;48.30
63371;DHT22;49504;48.336;14.472;2022-11-15T19:45:15;26.10;46.80
63371;DHT22;49504;48.336;14.472;2022-11-15T19:50:18;26.20;47.70
63371;DHT22;49504;48.336;14.472;2022-11-15T19:55:19;26.10;47.40
63371;DHT22;49504;48.336;14.472;2022-11-15T20:00:23;26.10;47.70
63371;DHT22;49504;48.336;14.472;2022-11-15T20:05:27;26.10;47.60
63371;DHT22;49504;48.336;14.472;2022-11-15T20:10:29;26.10;47.70
63371;DHT22;49504;48.336;14.472;2022-11-15T20:15:32;26.10;47.80
63371;DHT22;49504;48.336;14.472;2022-11-15T20:20:34;26.10;47.80
63371;DHT22;49504;48.336;14.472;2022-11-15T20:25:36;26.10;47.70
63371;DHT22;49504;48.336;14.472;2022-11-15T20:30:42;26.10;47.80
63371;DHT22;49504;48.336;14.472;2022-11-15T20:35:44;26.00;47.70
63371;DHT22;49504;48.336;14.472;2022-11-15T20:40:46;26.00;47.80
63371;DHT22;49504;48.336;14.472;2022-11-15T20:45:49;26.00;47.80
63371;DHT22;49504;48.336;14.472;2022-11-15T20:50:50;26.00;47.70
63371;DHT22;49504;48.336;14.472;2022-11-15T20:55:51;26.00;47.60
63371;DHT22;49504;48.336;14.472;2022-11-15T21:00:54;26.00;47.70
63371;DHT22;49504;48.336;14.472;2022-11-15T21:09:57;25.90;47.00
63371;DHT22;49504;48.336;14.472;2022-11-15T21:14:58;26.00;47.70
63371;DHT22;49504;48.336;14.472;2022-11-15T21:19:59;26.00;47.70
63371;DHT22;49504;48.336;14.472;2022-11-15T21:25:02;25.90;47.70
63371;DHT22;49504;48.336;14.472;2022-11-15T21:33:40;25.80;47.00
63371;DHT22;49504;48.336;14.472;2022-11-15T21:38:41;25.90;47.70
63371;DHT22;49504;48.336;14.472;2022-11-15T21:43:43;25.90;47.70
63371;DHT22;49504;48.336;14.472;2022-11-15T21:48:45;25.90;47.50
63371;DHT22;49504;48.336;14.472;2022-11-15T21:53:47;25.90;47.60
63371;DHT22;49504;48.336;14.472;2022-11-15T21:59:42;25.80;47.00
63371;DHT22;49504;48.336;14.472;2022-11-15T22:04:43;25.90;47.70
63371;DHT22;49504;48.336;14.472;2022-11-15T22:09:44;25.90;47.70
63371;DHT22;49504;48.336;14.472;2022-11-15T22:14:47;25.90;47.70
63371;DHT22;49504;48.336;14.472;2022-11-15T22:19:48;25.90;47.70
63371;DHT22;49504;48.336;14.472;2022-11-15T22:24:49;25.90;47.60
63371;DHT22;49504;48.336;14.472;2022-11-15T22:29:52;25.80;47.50
63371;DHT22;49504;48.336;14.472;2022-11-15T22:34:53;25.80;47.50
63371;DHT22;49504;48.336;14.472;2022-11-15T22:39:54;25.80;47.50
63371;DHT22;49504;48.336;14.472;2022-11-15T22:44:57;25.80;47.50
63371;DHT22;49504;48.336;14.472;2022-11-15T22:49:58;25.80;47.50
63371;DHT22;49504;48.336;14.472;2022-11-15T22:54:59;25.80;47.50
63371;DHT22;49504;48.336;14.472;2022-11-15T23:00:02;25.80;47.60
63371;DHT22;49504;48.336;14.472;2022-11-15T23:05:04;25.80;47.60
63371;DHT22;49504;48.336;14.472;2022-11-15T23:10:33;25.80;47.00
63371;DHT22;49504;48.336;14.472;2022-11-15T23:15:34;25.80;47.50
63371;DHT22;49504;48.336;14.472;2022-11-15T23:20:35;25.80;47.50
63371;DHT22;49504;48.336;14.472;2022-11-15T23:25:37;25.80;47.50
63371;DHT22;49504;48.336;14.472;2022-11-15T23:30:38;25.80;47.50
63371;DHT22;49504;48.336;14.472;2022-11-15T23:35:39;25.80;48.20
63371;DHT22;49504;48.336;14.472;2022-11-15T23:40:42;25.80;47.50
63371;DHT22;49504;48.336;14.472;2022-11-15T23:45:43;25.80;47.50
63371;DHT22;49504;48.336;14.472;2022-11-15T23:53:19;25.70;46.90
63371;DHT22;49504;48.336;14.472;2022-11-15T23:58:20;25.70;47.50
